Terminal Aerodrome Forecast
Issued by NWS

Home | Current Version | Previous Version | Text Only | Print | Product List | Glossary On
Versions: 1 2 3 4 5 6 7 8 9 10 11 12
060
FTUS45 KRIW 252336
TAFBPI
TAF
KBPI 252336Z 2600/2624 36011G19KT P6SM VCSH SCT035 BKN070
     FM260100 35008KT P6SM BKN080
     FM260700 VRB05KT P6SM SCT080
     FM261800 24011KT P6SM VCSH SCT015 BKN030 OVC040=

USA.gov is the U.S. government's official web portal to all federal, state and local government web resources and services.